Neligh, NE (68756)

6:26 PM CDT on April 27, 2015 (GMT -0500)
KNENELIG1 | | Change Station
CLOSE
Current Station
Personal Weather Station
Location: Neligh, NE
Elevation: 1750 ft
Nearby Weather Stations

Elev 1750 ft 42.13 °N, 98.03 °W | Updated 1 minute ago

Clear
Clear
68.0 °F
Feels Like 68.0 °F
N
0.0
Wind Variable Wind from NNE
Gusts 4.0 mph

Today
High -- | Low -- °F
--% Chance of Precip.
Yesterday
High -- | Low -- °F
Precip. -- in
6:33 AM 8:26 PM
Waxing Gibbous, 68% visible
Pressure 30.13 in
Visibility 10.0 miles
Clouds Clear
Dew Point 34 °F
Humidity 28%
Rainfall -999.00 in
Snow Depth Not available.
UV 2 out of 12
Pollen 9.70 out of 12
Air Quality Not available.
Flu Activity Local Activity
METAR KBVN 272315Z AUTO 06009KT 10SM CLR 20/M02 A3013 RMK AO2 T01981025

More Conditions Fewer Conditions

Pressure 30.13 in
Visibility 10.0 miles
Clouds Clear
Dew Point 34 °F
Humidity 28%
Rainfall -999.00 in
Snow Depth Not available.
UV 2 out of 12
Pollen 9.70 out of 12
Air Quality Not available.
Flu Activity Local Activity
METAR KBVN 272315Z AUTO 06009KT 10SM CLR 20/M02 A3013 RMK AO2 T01981025

More Conditions Fewer Conditions

10-Day Weather Forecast

Almanac

Astronomy

Apr. 27, 2015 Rise Set
Actual Time
Civil Twilight
Nautical Twilight
Astronomical Twilight
Moon
Length of Visible Light
Length of Day
Tomorrow will be .
, % of the Moon is Illuminated

Today's Extremes

State Highs State Lows

Community

WunderPhotos

Upload Photos

1,817,472 photos uploaded!

WunderBlogs® & News

Nearby

Air Quality

  Air Quality AQ Index Pollutant
Not available.

Snow Depth

Station Depth Elevation

Earthquake Activity

City Distance Mag. Time & Date
Minimum magnitude displayed is 2.5.

Coastal Water Temperatures

Place Temperature

Stations

Nearby Weather Stations

Station Location Temp. Windchill Dew Point Humidity Wind Precip. Elev Updated Type